createdAt,value
2023-03-22T00:02:18.620Z,7.65
2023-03-22T00:04:46.936Z,6.88
2023-03-22T00:07:16.496Z,5.65
2023-03-22T00:09:44.984Z,8.05
2023-03-22T00:12:13.175Z,6.45
2023-03-22T00:14:41.474Z,7.07
2023-03-22T00:17:09.713Z,9.70
2023-03-22T00:19:38.193Z,7.43
2023-03-22T00:22:06.765Z,8.95
2023-03-22T00:24:36.378Z,7.88
2023-03-22T00:27:04.735Z,9.52
2023-03-22T00:29:32.958Z,8.32
2023-03-22T00:32:01.243Z,8.75
2023-03-22T00:34:32.184Z,7.10
2023-03-22T00:37:00.636Z,7.32
2023-03-22T00:39:28.884Z,9.68
2023-03-22T00:41:58.499Z,7.95
2023-03-22T00:44:26.983Z,9.82
2023-03-22T00:46:55.428Z,10.10
2023-03-22T00:49:25.681Z,10.68
2023-03-22T00:51:53.990Z,8.18
2023-03-22T00:54:22.245Z,11.88
2023-03-22T00:56:50.864Z,15.13
2023-03-22T00:59:20.529Z,28.30
2023-03-22T01:01:48.791Z,17.50
2023-03-22T01:04:18.113Z,35.80
2023-03-22T01:06:47.165Z,19.98
2023-03-22T01:09:15.507Z,26.85
2023-03-22T01:11:44.307Z,22.27
2023-03-22T01:14:13.918Z,21.70
2023-03-22T01:16:43.747Z,24.80
2023-03-22T01:19:12.108Z,26.07
2023-03-22T01:21:40.371Z,28.25
2023-03-22T01:24:09.261Z,17.20
2023-03-22T01:26:38.862Z,14.95
2023-03-22T01:29:07.064Z,11.75
2023-03-22T01:31:35.336Z,8.82
2023-03-22T01:34:05.211Z,9.70
2023-03-22T01:36:33.440Z,8.98
2023-03-22T01:39:01.666Z,14.73
2023-03-22T01:41:29.981Z,7.15
2023-03-22T01:44:12.271Z,8.57
2023-03-22T01:46:41.947Z,7.35
2023-03-22T01:49:16.100Z,7.33
2023-03-22T01:51:45.933Z,8.50
2023-03-22T01:54:18.273Z,8.90
2023-03-22T01:56:46.868Z,7.72
2023-03-22T01:59:16.124Z,11.25
2023-03-22T02:01:47.085Z,6.93
2023-03-22T02:04:19.960Z,10.88
2023-03-22T02:06:48.601Z,8.95
2023-03-22T02:09:21.919Z,12.05
2023-03-22T02:11:52.437Z,9.32
2023-03-22T02:14:42.770Z,7.40
2023-03-22T02:17:20.916Z,12.38
2023-03-22T02:20:22.731Z,6.80
2023-03-22T02:23:19.358Z,5.78
2023-03-22T02:26:27.226Z,6.13
2023-03-22T02:28:57.437Z,6.25
2023-03-22T02:32:10.206Z,5.93
2023-03-22T02:35:35.797Z,6.15
2023-03-22T02:38:25.204Z,5.65
2023-03-22T02:40:57.935Z,5.22
2023-03-22T02:43:34.286Z,5.65
2023-03-22T02:46:06.844Z,5.50
2023-03-22T02:48:39.484Z,5.95
2023-03-22T02:51:11.144Z,5.78
2023-03-22T02:53:43.210Z,5.50
2023-03-22T02:56:14.405Z,5.00
2023-03-22T02:58:46.604Z,5.75
2023-03-22T03:01:20.017Z,6.20
2023-03-22T03:03:50.504Z,5.25
2023-03-22T03:06:21.301Z,5.53
2023-03-22T03:08:51.840Z,5.45
2023-03-22T03:11:22.292Z,5.85
2023-03-22T03:13:50.809Z,4.93
2023-03-22T03:16:22.052Z,5.72
2023-03-22T03:18:54.000Z,5.03
2023-03-22T03:21:30.046Z,5.65
2023-03-22T03:24:07.051Z,5.40
2023-03-22T03:26:40.608Z,5.22
2023-03-22T03:29:13.112Z,5.47
2023-03-22T03:31:44.650Z,5.03
2023-03-22T03:34:17.761Z,5.13
2023-03-22T03:36:50.796Z,5.18
2023-03-22T03:39:19.806Z,5.60
2023-03-22T03:41:51.270Z,5.28
2023-03-22T03:44:20.159Z,5.05
2023-03-22T03:46:49.177Z,5.47
2023-03-22T03:49:17.770Z,6.00
2023-03-22T03:51:48.260Z,4.97
2023-03-22T03:54:16.552Z,5.15
2023-03-22T03:56:44.831Z,5.93
2023-03-22T03:59:15.843Z,5.35
2023-03-22T04:01:50.406Z,5.18
2023-03-22T04:04:19.485Z,5.65
2023-03-22T04:06:47.782Z,5.97
2023-03-22T04:09:16.191Z,5.63
2023-03-22T04:11:44.434Z,6.05
2023-03-22T04:14:14.027Z,5.35
2023-03-22T04:16:42.371Z,5.53
2023-03-22T04:19:11.052Z,5.80
2023-03-22T04:21:39.353Z,5.50
2023-03-22T04:24:08.364Z,5.38
2023-03-22T04:26:36.657Z,5.20
2023-03-22T04:29:05.479Z,5.32
2023-03-22T04:31:35.735Z,5.35
2023-03-22T04:34:05.758Z,4.95
2023-03-22T04:36:36.389Z,5.43
2023-03-22T04:41:34.348Z,5.20
2023-03-22T04:44:03.697Z,5.15
2023-03-22T04:46:32.992Z,4.95
2023-03-22T04:49:03.376Z,5.22
2023-03-22T04:51:32.142Z,5.43
2023-03-22T04:54:00.594Z,5.90
2023-03-22T04:56:28.879Z,6.30
2023-03-22T04:58:57.152Z,5.50
2023-03-22T05:01:25.465Z,5.90
2023-03-22T05:03:53.754Z,6.45
2023-03-22T05:06:23.347Z,7.05
2023-03-22T05:08:51.593Z,7.05
2023-03-22T05:11:20.351Z,6.90
2023-03-22T05:13:48.623Z,7.00
2023-03-22T05:16:16.948Z,7.57
2023-03-22T05:18:45.556Z,6.63
2023-03-22T05:21:15.405Z,6.05
2023-03-22T05:23:46.277Z,6.80
2023-03-22T05:26:15.832Z,7.53
2023-03-22T05:28:44.294Z,6.88
2023-03-22T05:31:14.783Z,5.97
2023-03-22T05:33:43.240Z,5.93
2023-03-22T05:36:12.429Z,6.20
2023-03-22T05:38:41.337Z,6.90
2023-03-22T05:41:11.046Z,5.53
2023-03-22T05:43:39.573Z,5.07
2023-03-22T05:46:08.492Z,4.90
2023-03-22T05:48:37.034Z,5.30
2023-03-22T05:51:07.317Z,5.30
2023-03-22T05:53:36.116Z,4.95
2023-03-22T05:56:04.739Z,5.85
2023-03-22T05:58:35.089Z,5.47
2023-03-22T06:01:07.252Z,4.78
2023-03-22T06:03:35.945Z,5.05
2023-03-22T06:06:06.732Z,5.43
2023-03-22T06:08:35.259Z,5.28
2023-03-22T06:11:03.552Z,5.38
2023-03-22T06:13:32.006Z,5.82
2023-03-22T06:16:02.450Z,5.22
2023-03-22T06:18:31.328Z,6.30
2023-03-22T06:20:59.666Z,5.38
2023-03-22T06:23:28.091Z,5.43
2023-03-22T06:25:56.536Z,5.50
2023-03-22T06:28:29.510Z,5.70
2023-03-22T06:30:57.925Z,4.55
2023-03-22T06:33:27.529Z,5.30
2023-03-22T06:35:55.818Z,5.38
2023-03-22T06:38:24.103Z,5.70
2023-03-22T06:40:52.385Z,4.90
2023-03-22T06:43:20.711Z,5.35
2023-03-22T06:45:49.482Z,4.32
2023-03-22T06:48:17.793Z,4.72
2023-03-22T06:50:47.426Z,4.95
2023-03-22T06:53:15.740Z,4.65
2023-03-22T06:55:43.963Z,4.75
2023-03-22T06:58:12.567Z,4.40
2023-03-22T07:00:41.561Z,4.50
2023-03-22T07:03:10.077Z,4.60
2023-03-22T07:05:38.332Z,4.18
2023-03-22T07:08:08.172Z,4.03
2023-03-22T07:10:36.483Z,4.13
2023-03-22T07:13:04.750Z,4.43
2023-03-22T07:15:34.454Z,4.35
2023-03-22T07:18:03.219Z,4.00
2023-03-22T07:20:32.952Z,4.30
2023-03-22T07:23:01.196Z,4.37
2023-03-22T07:25:30.948Z,3.58
2023-03-22T07:28:00.500Z,4.00
2023-03-22T07:30:28.746Z,4.13
2023-03-22T07:32:56.971Z,3.80
2023-03-22T07:35:26.966Z,3.10
2023-03-22T07:37:55.328Z,3.80
2023-03-22T07:40:23.745Z,3.65
2023-03-22T07:42:54.848Z,3.22
2023-03-22T07:45:24.335Z,4.13
2023-03-22T07:47:52.649Z,3.50
2023-03-22T07:50:21.023Z,3.92
2023-03-22T07:52:49.465Z,3.63
2023-03-22T07:55:17.829Z,3.85
2023-03-22T07:57:46.392Z,3.85
2023-03-22T08:00:17.251Z,3.97
2023-03-22T08:02:46.232Z,3.60
2023-03-22T08:05:14.595Z,3.00
2023-03-22T08:07:43.168Z,3.13
2023-03-22T08:10:12.027Z,3.60
2023-03-22T08:12:40.350Z,4.22
2023-03-22T08:15:10.251Z,3.72
2023-03-22T08:17:40.038Z,4.47
2023-03-22T08:20:10.008Z,3.80
2023-03-22T08:22:38.371Z,5.32
2023-03-22T08:25:07.397Z,2.60
2023-03-22T08:27:35.649Z,4.57
2023-03-22T08:30:05.667Z,3.40
2023-03-22T08:32:34.781Z,3.67
2023-03-22T08:35:06.420Z,3.30
2023-03-22T08:37:34.724Z,3.17
2023-03-22T08:40:06.525Z,3.15
2023-03-22T08:42:34.898Z,3.28
2023-03-22T08:45:03.372Z,3.08
2023-03-22T08:47:31.657Z,2.08
2023-03-22T08:49:59.974Z,3.63
2023-03-22T08:52:30.145Z,3.35
2023-03-22T08:54:58.487Z,3.97
2023-03-22T08:57:27.668Z,3.65
2023-03-22T08:59:57.597Z,3.47
2023-03-22T09:02:26.201Z,3.40
2023-03-22T09:04:54.892Z,3.25
2023-03-22T09:07:24.304Z,3.50
2023-03-22T09:09:53.952Z,3.67
2023-03-22T09:12:22.181Z,3.40
2023-03-22T09:14:50.564Z,2.80
2023-03-22T09:17:21.315Z,3.50
2023-03-22T09:19:55.664Z,2.83
2023-03-22T09:22:31.032Z,2.40
2023-03-22T09:25:00.704Z,2.63
2023-03-22T09:27:29.105Z,3.57
2023-03-22T09:29:57.560Z,2.47
2023-03-22T09:32:25.953Z,2.13
2023-03-22T09:34:54.394Z,3.15
2023-03-22T09:40:12.865Z,2.63
2023-03-22T09:42:42.984Z,3.30
2023-03-22T09:45:16.325Z,1.98
2023-03-22T09:47:46.733Z,3.22
2023-03-22T09:52:45.083Z,2.42
2023-03-22T09:55:21.044Z,2.75
2023-03-22T09:57:55.489Z,3.13
2023-03-22T10:00:29.226Z,2.40
2023-03-22T10:03:03.414Z,1.90
2023-03-22T10:05:37.177Z,2.75
2023-03-22T10:08:26.206Z,2.30
2023-03-22T10:10:55.884Z,2.30
2023-03-22T10:13:28.126Z,1.57
2023-03-22T10:15:59.183Z,2.75
2023-03-22T10:18:29.952Z,1.48
2023-03-22T10:21:01.540Z,2.38
2023-03-22T10:23:32.776Z,2.20
2023-03-22T10:26:04.156Z,1.35
2023-03-22T10:28:36.938Z,2.20
2023-03-22T10:31:06.038Z,2.42
2023-03-22T10:33:39.574Z,2.95
2023-03-22T10:36:13.778Z,3.05
2023-03-22T10:38:46.525Z,2.63
2023-03-22T10:41:18.563Z,2.70
2023-03-22T10:43:49.910Z,3.15
2023-03-22T10:46:21.146Z,2.72
2023-03-22T10:48:51.307Z,2.88
2023-03-22T10:51:25.895Z,2.50
2023-03-22T10:53:56.153Z,2.13
2023-03-22T10:56:26.205Z,2.00
2023-03-22T10:58:56.409Z,2.30
2023-03-22T11:01:29.989Z,1.85
2023-03-22T11:04:01.018Z,2.50
2023-03-22T11:06:32.911Z,2.35
2023-03-22T11:09:04.078Z,1.88
2023-03-22T11:11:49.074Z,2.60
2023-03-22T11:14:20.783Z,2.35
2023-03-22T11:16:53.968Z,2.42
2023-03-22T11:19:26.281Z,2.00
2023-03-22T11:21:55.583Z,2.13
2023-03-22T11:24:25.917Z,3.10
2023-03-22T11:27:06.852Z,2.55
2023-03-22T11:29:41.770Z,2.28
2023-03-22T11:32:23.148Z,1.95
2023-03-22T11:35:00.836Z,1.70
2023-03-22T11:37:29.436Z,2.08
2023-03-22T11:40:01.756Z,1.98
2023-03-22T11:42:31.467Z,2.35
2023-03-22T11:44:59.781Z,2.53
2023-03-22T11:47:31.778Z,2.70
2023-03-22T11:50:05.475Z,2.47
2023-03-22T11:52:33.893Z,2.65
2023-03-22T11:55:02.582Z,2.03
2023-03-22T11:57:33.034Z,2.88
2023-03-22T12:05:21.787Z,1.95
2023-03-22T12:07:53.445Z,2.60
2023-03-22T12:10:26.422Z,2.40
2023-03-22T12:12:59.642Z,2.65
2023-03-22T12:15:31.083Z,1.95
2023-03-22T12:18:06.016Z,2.17
2023-03-22T12:20:41.618Z,2.60
2023-03-22T12:23:15.425Z,2.17
2023-03-22T12:25:47.905Z,2.60
2023-03-22T12:28:19.916Z,2.50
2023-03-22T12:30:50.612Z,2.38
2023-03-22T12:33:21.800Z,2.30
2023-03-22T12:35:52.624Z,2.03
2023-03-22T12:38:27.968Z,1.90
2023-03-22T12:40:59.093Z,2.28
2023-03-22T12:43:39.379Z,2.35
2023-03-22T12:46:11.718Z,2.30
2023-03-22T12:48:44.594Z,2.20
2023-03-22T12:51:15.660Z,1.52
2023-03-22T12:53:46.288Z,2.05
2023-03-22T12:56:16.706Z,1.63
2023-03-22T13:01:23.080Z,1.92
2023-03-22T13:03:54.662Z,1.63
2023-03-22T13:06:34.972Z,1.27
2023-03-22T13:09:21.849Z,1.52
2023-03-22T13:12:28.361Z,0.80
2023-03-22T13:15:00.573Z,1.05
2023-03-22T13:17:46.940Z,1.10
2023-03-22T13:20:38.462Z,1.02
2023-03-22T13:23:27.162Z,1.10
2023-03-22T13:26:01.614Z,1.42
2023-03-22T13:28:30.966Z,1.67
2023-03-22T13:31:01.647Z,1.63
2023-03-22T13:33:31.330Z,1.10
2023-03-22T13:36:01.166Z,1.88
2023-03-22T13:38:31.382Z,1.00
2023-03-22T13:41:02.917Z,1.30
2023-03-22T13:43:34.277Z,1.10
2023-03-22T13:46:51.326Z,1.30
2023-03-22T13:49:56.009Z,1.05
2023-03-22T13:52:29.307Z,1.33
2023-03-22T13:54:59.421Z,1.20
2023-03-22T13:57:46.793Z,1.17
2023-03-22T14:00:34.301Z,1.10
2023-03-22T14:03:04.661Z,0.90
2023-03-22T14:08:04.305Z,0.65
2023-03-22T14:10:38.801Z,0.98
2023-03-22T14:13:15.874Z,0.70
2023-03-22T14:15:48.153Z,0.80
2023-03-22T14:18:19.284Z,0.73
2023-03-22T14:20:49.436Z,0.55
